Hermann - S — V2EI6 — position and weather

sailwx.info

Track history (hours):
 
Tides and Currents Weather Stations Pressure Air Temp Water Temp Dewpoint Dewpoint Depression Visibility Wind Speed Wind Dir Waves Ship Positions

Hermann - S

Last reported at 2017-Jul-10 19:46 UTC. Time now 2017-Jul-27 18:26 UTC.
Position N 46°53' W 127°09'.
Warning: this ship's position is 16 days out of date.

Length 190 m; draft 11.2 m.

Type: Ship. MMSI: 305441000.

Date/timePositionNaut miles runAvg speedWind from/ knotsBaromVisibWave heightAir tempDewpointWater temp
2017-Jul-10 19:46N 46°53' W 127°09'411.0
2017-Jul-10 19:26N 46°53' W 127°03'611.2
2017-Jul-10 18:53N 46°53' W 126°55'410.9
2017-Jul-10 18:30N 46°53' W 126°48'610.6
2017-Jul-10 17:57N 46°53' W 126°40'1210.8
2017-Jul-10 16:50N 46°53' W 126°22'410.7
2017-Jul-10 16:29N 46°53' W 126°17'510.8
2017-Jul-10 16:00N 46°53' W 126°09'714.3
2017-Jul-10 15:30N 46°53' W 125°59'3 6.4
2017-Jul-10 15:00N 46°53' W 125°54'510.1
2017-Jul-10 14:31N 46°52' W 125°47'611.8
2017-Jul-10 13:59N 46°52' W 125°38'4 7.6
2017-Jul-10 13:30N 46°52' W 125°32'5 9.9
2017-Jul-10 13:00N 46°52' W 125°25'510.0
2017-Jul-10 12:30N 46°52' W 125°18'510.0
2017-Jul-10 12:00N 46°52' W 125°10'5 9.9
2017-Jul-10 11:31N 46°52' W 125°03'510.3
2017-Jul-10 11:00N 46°52' W 124°56'510.5
2017-Jul-10 10:31N 46°52' W 124°48'510.6
2017-Jul-10 10:01N 46°52' W 124°40'510.8
2017-Jul-10 09:31N 46°52' W 124°32'611.2
2017-Jul-10 09:00N 46°52' W 124°24'611.3
2017-Jul-10 08:31N 46°52' W 124°16'4 7.2
2017-Jul-10 08:00N 46°54' W 124°12'4 8.5
2017-Jul-10 07:31N 46°55' W 124°06'6 6.8
2017-Jul-10 06:41N 46°58' W 123°58'3 6.9
2017-Jul-10 06:15N 46°58' W 123°54'2 0.1
2017-Jul-09 07:52N 46°58' W 123°51'0 0.0
2017-Jul-09 07:22N 46°58' W 123°51'0 0.0
2017-Jul-09 06:52N 46°58' W 123°51'0 0.0
2017-Jul-09 04:34N 46°58' W 123°51'0 0.0
2017-Jul-09 04:13N 46°58' W 123°51'0 0.0
2017-Jul-07 15:31N 46°58' W 123°51'0 0.0
2017-Jul-07 10:22N 46°58' W 123°51'0 0.0
2017-Jul-07 06:07N 46°58' W 123°51'0 0.0
2017-Jul-07 05:46N 46°58' W 123°51'0 0.0
2017-Jul-07 04:49N 46°58' W 123°51'0 0.0
2017-Jul-07 04:22N 46°58' W 123°51'0 0.0
2017-Jul-07 03:49N 46°58' W 123°51'0 0.0
2017-Jul-07 02:13N 46°58' W 123°51'  
2017-Jul-04 07:31N 46°58' W 123°51'0 0.0
2017-Jul-02 17:28N 46°58' W 123°51'0 0.0
2017-Jul-02 16:55N 46°58' W 123°51'0 0.0
2017-Jul-02 15:43N 46°58' W 123°51'0 0.0
2017-Jul-02 15:07N 46°58' W 123°51'0 0.0
2017-Jul-02 14:37N 46°58' W 123°51'0 0.0
2017-Jul-02 13:55N 46°58' W 123°51'0 0.0
2017-Jul-02 12:37N 46°58' W 123°51'0 0.0
2017-Jul-02 09:31N 46°58' W 123°51'3 0.3
2017-Jul-01 21:48N 46°58' W 123°56'310.2
2017-Jul-01 21:30N 46°57' W 123°60'511.1
2017-Jul-01 21:00N 46°55' W 124°07'510.8
2017-Jul-01 20:30N 46°52' W 124°14'2 4.7
2017-Jul-01 20:00N 46°51' W 124°17'1 1.9
2017-Jul-01 19:30N 46°52' W 124°18'3 5.8
2017-Jul-01 19:01N 46°53' W 124°14'510.2
2017-Jul-01 18:30N 46°51' W 124°21'4 8.5
2017-Jul-01 18:00N 46°51' W 124°27'1 1.9
2017-Jul-01 17:30N 46°52' W 124°27'1 1.1
2017-Jul-01 17:01N 46°52' W 124°28'1 1.9
2017-Jul-01 16:30N 46°52' W 124°29'5 9.5
2017-Jul-01 16:00N 46°52' W 124°36'713.1
2017-Jul-01 15:30N 46°52' W 124°46'612.9
2017-Jul-01 15:00N 46°52' W 124°55'1313.3
2017-Jul-01 14:00N 46°52' W 125°15'613.0
2017-Jul-01 13:30N 46°52' W 125°24'612.9
2017-Jul-01 13:00N 46°52' W 125°34'713.3
2017-Jul-01 12:30N 46°52' W 125°43'713.2
2017-Jul-01 12:01N 46°52' W 125°53'713.1
2017-Jul-01 11:30N 46°52' W 126°03'713.0
2017-Jul-01 11:00N 46°52' W 126°12'612.8
2017-Jul-01 10:30N 46°52' W 126°21'613.0
2017-Jul-01 10:00N 46°52' W 126°31'1212.8
2017-Jul-01 09:04N 46°52' W 126°49'113.4
2017-Jul-01 09:00N 46°52' W 126°50'713.0
2017-Jul-01 08:30N 46°52' W 126°59'713.1
2017-Jul-01 07:56N 46°52' W 127°10'713.4
2017-Jul-01 07:27N 46°52' W 127°20'913.4
2017-Jul-01 06:45N 46°52' W 127°33'  
Track history (hours):
 
Tides and Currents Weather Stations Pressure Air Temp Water Temp Dewpoint Dewpoint Depression Visibility Wind Speed Wind Dir Waves Ship Positions

Hermann - S

Last reported at 2017-Jul-10 19:46 UTC. Time now 2017-Jul-27 18:26 UTC.
Position N 46°53' W 127°09'.
Warning: this ship's position is 16 days out of date.

Length 190 m; draft 11.2 m.

Type: Ship. MMSI: 305441000.

Date/timePositionNaut miles runAvg speedWind from/ knotsBaromVisibWave heightAir tempDewpointWater temp
2017-Jul-10 19:46N 46°53' W 127°09'411.0
2017-Jul-10 19:26N 46°53' W 127°03'611.2
2017-Jul-10 18:53N 46°53' W 126°55'410.9
2017-Jul-10 18:30N 46°53' W 126°48'610.6
2017-Jul-10 17:57N 46°53' W 126°40'1210.8
2017-Jul-10 16:50N 46°53' W 126°22'410.7
2017-Jul-10 16:29N 46°53' W 126°17'510.8
2017-Jul-10 16:00N 46°53' W 126°09'714.3
2017-Jul-10 15:30N 46°53' W 125°59'3 6.4
2017-Jul-10 15:00N 46°53' W 125°54'510.1
2017-Jul-10 14:31N 46°52' W 125°47'611.8
2017-Jul-10 13:59N 46°52' W 125°38'4 7.6
2017-Jul-10 13:30N 46°52' W 125°32'5 9.9
2017-Jul-10 13:00N 46°52' W 125°25'510.0
2017-Jul-10 12:30N 46°52' W 125°18'510.0
2017-Jul-10 12:00N 46°52' W 125°10'5 9.9
2017-Jul-10 11:31N 46°52' W 125°03'510.3
2017-Jul-10 11:00N 46°52' W 124°56'510.5
2017-Jul-10 10:31N 46°52' W 124°48'510.6
2017-Jul-10 10:01N 46°52' W 124°40'510.8
2017-Jul-10 09:31N 46°52' W 124°32'611.2
2017-Jul-10 09:00N 46°52' W 124°24'611.3
2017-Jul-10 08:31N 46°52' W 124°16'4 7.2
2017-Jul-10 08:00N 46°54' W 124°12'4 8.5
2017-Jul-10 07:31N 46°55' W 124°06'6 6.8
2017-Jul-10 06:41N 46°58' W 123°58'3 6.9
2017-Jul-10 06:15N 46°58' W 123°54'2 0.1
2017-Jul-09 07:52N 46°58' W 123°51'0 0.0
2017-Jul-09 07:22N 46°58' W 123°51'0 0.0
2017-Jul-09 06:52N 46°58' W 123°51'0 0.0
2017-Jul-09 04:34N 46°58' W 123°51'0 0.0
2017-Jul-09 04:13N 46°58' W 123°51'0 0.0
2017-Jul-07 15:31N 46°58' W 123°51'0 0.0
2017-Jul-07 10:22N 46°58' W 123°51'0 0.0
2017-Jul-07 06:07N 46°58' W 123°51'0 0.0
2017-Jul-07 05:46N 46°58' W 123°51'0 0.0
2017-Jul-07 04:49N 46°58' W 123°51'0 0.0
2017-Jul-07 04:22N 46°58' W 123°51'0 0.0
2017-Jul-07 03:49N 46°58' W 123°51'0 0.0
2017-Jul-07 02:13N 46°58' W 123°51'  
2017-Jul-04 07:31N 46°58' W 123°51'0 0.0
2017-Jul-02 17:28N 46°58' W 123°51'0 0.0
2017-Jul-02 16:55N 46°58' W 123°51'0 0.0
2017-Jul-02 15:43N 46°58' W 123°51'0 0.0
2017-Jul-02 15:07N 46°58' W 123°51'0 0.0
2017-Jul-02 14:37N 46°58' W 123°51'0 0.0
2017-Jul-02 13:55N 46°58' W 123°51'0 0.0
2017-Jul-02 12:37N 46°58' W 123°51'0 0.0
2017-Jul-02 09:31N 46°58' W 123°51'3 0.3
2017-Jul-01 21:48N 46°58' W 123°56'310.2
2017-Jul-01 21:30N 46°57' W 123°60'511.1
2017-Jul-01 21:00N 46°55' W 124°07'510.8
2017-Jul-01 20:30N 46°52' W 124°14'2 4.7
2017-Jul-01 20:00N 46°51' W 124°17'1 1.9
2017-Jul-01 19:30N 46°52' W 124°18'3 5.8
2017-Jul-01 19:01N 46°53' W 124°14'510.2
2017-Jul-01 18:30N 46°51' W 124°21'4 8.5
2017-Jul-01 18:00N 46°51' W 124°27'1 1.9
2017-Jul-01 17:30N 46°52' W 124°27'1 1.1
2017-Jul-01 17:01N 46°52' W 124°28'1 1.9
2017-Jul-01 16:30N 46°52' W 124°29'5 9.5
2017-Jul-01 16:00N 46°52' W 124°36'713.1
2017-Jul-01 15:30N 46°52' W 124°46'612.9
2017-Jul-01 15:00N 46°52' W 124°55'1313.3
2017-Jul-01 14:00N 46°52' W 125°15'613.0
2017-Jul-01 13:30N 46°52' W 125°24'612.9
2017-Jul-01 13:00N 46°52' W 125°34'713.3
2017-Jul-01 12:30N 46°52' W 125°43'713.2
2017-Jul-01 12:01N 46°52' W 125°53'713.1
2017-Jul-01 11:30N 46°52' W 126°03'713.0
2017-Jul-01 11:00N 46°52' W 126°12'612.8
2017-Jul-01 10:30N 46°52' W 126°21'613.0
2017-Jul-01 10:00N 46°52' W 126°31'1212.8
2017-Jul-01 09:04N 46°52' W 126°49'113.4
2017-Jul-01 09:00N 46°52' W 126°50'713.0
2017-Jul-01 08:30N 46°52' W 126°59'713.1
2017-Jul-01 07:56N 46°52' W 127°10'713.4
2017-Jul-01 07:27N 46°52' W 127°20'913.4
2017-Jul-01 06:45N 46°52' W 127°33'  

Dump ship's entire track history